createdAt,value
2022-10-26T00:00:38.261Z,997.33
2022-10-26T00:01:38.405Z,997.36
2022-10-26T00:02:38.344Z,997.30
2022-10-26T00:03:38.241Z,997.27
2022-10-26T00:04:38.242Z,997.26
2022-10-26T00:05:38.213Z,997.29
2022-10-26T00:06:38.193Z,997.31
2022-10-26T00:07:38.196Z,997.30
2022-10-26T00:08:38.176Z,997.28
2022-10-26T00:09:38.184Z,997.28
2022-10-26T00:10:38.155Z,997.27
2022-10-26T00:11:38.151Z,997.31
2022-10-26T00:12:38.134Z,997.30
2022-10-26T00:13:38.145Z,997.29
2022-10-26T00:14:38.126Z,997.33
2022-10-26T00:15:38.106Z,997.28
2022-10-26T00:16:38.098Z,997.34
2022-10-26T00:17:38.086Z,997.31
2022-10-26T00:18:38.077Z,997.26
2022-10-26T00:19:38.090Z,997.30
2022-10-26T00:20:38.050Z,997.28
2022-10-26T00:21:38.050Z,997.29
2022-10-26T00:22:38.028Z,997.27
2022-10-26T00:23:38.018Z,997.30
2022-10-26T00:24:38.020Z,997.27
2022-10-26T00:25:37.999Z,997.31
2022-10-26T00:26:37.988Z,997.24
2022-10-26T00:27:37.978Z,997.30
2022-10-26T00:28:37.963Z,997.35
2022-10-26T00:29:37.971Z,997.31
2022-10-26T00:30:37.949Z,997.26
2022-10-26T00:31:37.939Z,997.32
2022-10-26T00:32:37.963Z,997.32
2022-10-26T00:33:37.922Z,997.23
2022-10-26T00:34:37.921Z,997.26
2022-10-26T00:35:46.187Z,997.25
2022-10-26T00:36:38.882Z,997.26
2022-10-26T00:37:37.873Z,997.28
2022-10-26T00:38:37.863Z,997.25
2022-10-26T00:39:37.874Z,997.24
2022-10-26T00:40:37.833Z,997.24
2022-10-26T00:41:37.844Z,997.17
2022-10-26T00:42:37.824Z,997.17
2022-10-26T00:43:37.812Z,997.18
2022-10-26T00:44:37.825Z,997.16
2022-10-26T00:45:37.795Z,997.13
2022-10-26T00:46:37.779Z,997.09
2022-10-26T00:47:37.779Z,997.17
2022-10-26T00:48:37.756Z,997.14
2022-10-26T00:49:37.769Z,997.13
2022-10-26T00:50:37.744Z,997.18
2022-10-26T00:51:37.726Z,997.16
2022-10-26T00:52:37.715Z,997.16
2022-10-26T00:53:37.708Z,997.15
2022-10-26T00:54:37.708Z,997.16
2022-10-26T00:55:37.691Z,997.15
2022-10-26T00:56:37.676Z,997.16
2022-10-26T00:58:37.649Z,997.11
2022-10-26T00:59:37.669Z,997.10
2022-10-26T01:00:37.631Z,997.06
2022-10-26T01:01:37.683Z,997.06
2022-10-26T01:02:37.610Z,997.04
2022-10-26T01:03:37.629Z,997.08
2022-10-26T01:04:37.601Z,997.11
2022-10-26T01:05:37.580Z,997.11
2022-10-26T01:06:37.581Z,997.09
2022-10-26T01:07:37.559Z,997.09
2022-10-26T01:08:37.572Z,997.08
2022-10-26T01:09:37.553Z,997.05
2022-10-26T01:10:37.531Z,996.97
2022-10-26T01:11:37.515Z,997.04
2022-10-26T01:12:37.512Z,997.00
2022-10-26T01:13:37.492Z,996.98
2022-10-26T01:14:37.504Z,996.94
2022-10-26T01:15:37.472Z,996.94
2022-10-26T01:16:39.551Z,996.89
2022-10-26T01:17:37.446Z,996.89
2022-10-26T01:18:37.442Z,996.91
2022-10-26T01:19:37.444Z,996.83
2022-10-26T01:20:37.416Z,996.95
2022-10-26T01:21:37.414Z,996.88
2022-10-26T01:22:37.397Z,996.89
2022-10-26T01:23:37.387Z,996.88
2022-10-26T01:24:37.386Z,996.93
2022-10-26T01:25:37.367Z,996.91
2022-10-26T01:26:37.364Z,996.90
2022-10-26T01:27:37.348Z,996.95
2022-10-26T01:28:37.338Z,996.88
2022-10-26T01:29:37.341Z,996.91
2022-10-26T01:30:37.320Z,996.91
2022-10-26T01:31:37.299Z,996.92
2022-10-26T01:32:37.289Z,996.87
2022-10-26T01:33:37.289Z,996.85
2022-10-26T01:34:37.299Z,996.86
2022-10-26T01:35:37.265Z,996.83
2022-10-26T01:36:37.256Z,996.81
2022-10-26T01:37:37.240Z,996.76
2022-10-26T01:38:37.230Z,996.81
2022-10-26T01:39:37.241Z,996.78
2022-10-26T01:40:37.213Z,996.78
2022-10-26T01:41:37.192Z,996.80
2022-10-26T01:42:37.200Z,996.76
2022-10-26T01:43:37.180Z,996.78
2022-10-26T01:44:37.191Z,996.73
2022-10-26T01:45:37.159Z,996.75
2022-10-26T01:46:37.147Z,996.67
2022-10-26T01:47:37.134Z,996.66
2022-10-26T01:48:37.134Z,996.65
2022-10-26T01:49:37.124Z,996.68
2022-10-26T01:50:37.104Z,996.60
2022-10-26T01:51:37.084Z,996.63
2022-10-26T01:52:37.084Z,996.67
2022-10-26T01:53:37.074Z,996.65
2022-10-26T01:55:37.047Z,996.63
2022-10-26T01:56:37.044Z,996.60
2022-10-26T01:57:37.027Z,996.61
2022-10-26T01:58:37.018Z,996.63
2022-10-26T01:59:37.025Z,996.61
2022-10-26T02:00:37.005Z,996.56
2022-10-26T02:01:37.010Z,996.52
2022-10-26T02:02:36.984Z,996.55
2022-10-26T02:03:37.067Z,996.49
2022-10-26T02:04:36.976Z,996.51
2022-10-26T02:05:36.941Z,996.60
2022-10-26T02:06:36.939Z,996.54
2022-10-26T02:07:36.922Z,996.51
2022-10-26T02:08:36.920Z,996.48
2022-10-26T02:09:36.911Z,996.50
2022-10-26T02:10:36.898Z,996.52
2022-10-26T02:11:36.880Z,996.49
2022-10-26T02:12:36.881Z,996.41
2022-10-26T02:13:36.860Z,996.45
2022-10-26T02:14:36.874Z,996.43
2022-10-26T02:15:36.832Z,996.42
2022-10-26T02:16:36.832Z,996.40
2022-10-26T02:17:36.813Z,996.38
2022-10-26T02:18:36.810Z,996.42
2022-10-26T02:19:36.810Z,996.40
2022-10-26T02:20:36.791Z,996.41
2022-10-26T02:21:36.775Z,996.41
2022-10-26T02:22:36.764Z,996.43
2022-10-26T02:23:36.753Z,996.41
2022-10-26T02:24:36.772Z,996.39
2022-10-26T02:25:36.745Z,996.40
2022-10-26T02:26:36.726Z,996.39
2022-10-26T02:27:36.716Z,996.45
2022-10-26T02:28:36.705Z,996.36
2022-10-26T02:29:36.706Z,996.39
2022-10-26T02:30:36.686Z,996.41
2022-10-26T02:31:36.667Z,996.40
2022-10-26T02:32:36.658Z,996.34
2022-10-26T02:33:36.679Z,996.40
2022-10-26T02:34:36.666Z,996.39
2022-10-26T02:35:36.627Z,996.41
2022-10-26T02:36:36.626Z,996.38
2022-10-26T02:37:36.609Z,996.30
2022-10-26T02:38:36.599Z,996.36
2022-10-26T02:39:36.599Z,996.32
2022-10-26T02:40:36.580Z,996.31
2022-10-26T02:41:36.600Z,996.33
2022-10-26T02:42:36.558Z,996.31
2022-10-26T02:43:36.545Z,996.23
2022-10-26T02:44:36.565Z,996.30
2022-10-26T02:45:36.528Z,996.23
2022-10-26T02:46:36.511Z,996.21
2022-10-26T02:47:36.500Z,996.20
2022-10-26T02:48:36.498Z,996.19
2022-10-26T02:49:36.512Z,996.22
2022-10-26T02:50:36.473Z,996.12
2022-10-26T02:51:36.497Z,996.11
2022-10-26T02:52:36.452Z,996.14
2022-10-26T02:53:36.451Z,996.10
2022-10-26T02:54:36.443Z,996.16
2022-10-26T02:55:36.421Z,996.12
2022-10-26T02:56:36.416Z,996.17
2022-10-26T02:57:36.395Z,996.15
2022-10-26T02:58:36.394Z,996.12
2022-10-26T02:59:36.418Z,996.13
2022-10-26T03:00:36.366Z,996.14
2022-10-26T03:01:36.400Z,996.13
2022-10-26T03:02:36.347Z,996.11
2022-10-26T03:03:36.401Z,996.10
2022-10-26T03:04:36.349Z,996.12
2022-10-26T03:05:36.313Z,996.16
2022-10-26T03:06:36.304Z,996.13
2022-10-26T03:07:36.290Z,996.09
2022-10-26T03:08:36.288Z,996.14
2022-10-26T03:09:36.291Z,996.14
2022-10-26T03:10:36.269Z,996.12
2022-10-26T03:11:36.259Z,996.10
2022-10-26T03:12:36.242Z,996.12
2022-10-26T03:13:36.221Z,996.14
2022-10-26T03:14:36.237Z,996.15
2022-10-26T03:15:36.257Z,996.18
2022-10-26T03:16:36.200Z,996.17
2022-10-26T03:17:36.180Z,996.19
2022-10-26T03:18:36.188Z,996.21
2022-10-26T03:19:36.179Z,996.25
2022-10-26T03:20:36.161Z,996.25
2022-10-26T03:21:36.141Z,996.21
2022-10-26T03:22:36.139Z,996.26
2022-10-26T03:23:36.120Z,996.27
2022-10-26T03:24:36.133Z,996.23
2022-10-26T03:25:36.105Z,996.27
2022-10-26T03:26:36.101Z,996.28
2022-10-26T03:27:36.074Z,996.30
2022-10-26T03:28:36.074Z,996.29
2022-10-26T03:29:36.074Z,996.28
2022-10-26T03:30:36.057Z,996.24
2022-10-26T03:31:36.046Z,996.24
2022-10-26T03:32:36.039Z,996.19
2022-10-26T03:34:36.025Z,996.26
2022-10-26T03:35:35.996Z,996.23
2022-10-26T03:36:35.987Z,996.20
2022-10-26T03:37:35.976Z,996.16
2022-10-26T03:38:35.956Z,996.17
2022-10-26T03:39:35.978Z,996.24
2022-10-26T03:40:35.946Z,996.21
2022-10-26T03:41:35.937Z,996.17
2022-10-26T03:42:35.919Z,996.15
2022-10-26T03:43:35.923Z,996.20
2022-10-26T03:44:35.928Z,996.19
2022-10-26T03:45:35.889Z,996.14
2022-10-26T03:46:35.878Z,996.13
2022-10-26T03:47:35.871Z,996.14
2022-10-26T03:48:35.871Z,996.14
2022-10-26T03:49:35.851Z,996.14
2022-10-26T03:50:35.850Z,996.14
2022-10-26T03:51:35.823Z,996.19
2022-10-26T03:52:35.825Z,996.14
2022-10-26T03:53:35.811Z,996.11
2022-10-26T03:54:35.791Z,996.15
2022-10-26T03:55:35.802Z,996.15
2022-10-26T03:56:35.772Z,996.17
2022-10-26T03:57:35.771Z,996.19
2022-10-26T03:58:35.753Z,996.13
2022-10-26T03:59:35.751Z,996.11
2022-10-26T04:00:35.771Z,996.09
2022-10-26T04:01:35.784Z,996.07
2022-10-26T04:02:35.714Z,996.11
2022-10-26T04:03:35.724Z,996.10
2022-10-26T04:04:35.789Z,996.07
2022-10-26T04:05:35.703Z,996.06
2022-10-26T04:06:35.724Z,996.05
2022-10-26T04:07:35.664Z,996.09
2022-10-26T04:08:35.645Z,996.03
2022-10-26T04:09:35.636Z,996.12
2022-10-26T04:10:35.650Z,996.09
2022-10-26T04:11:35.628Z,996.15
2022-10-26T04:12:35.629Z,996.12
2022-10-26T04:13:35.599Z,996.06
2022-10-26T04:14:35.578Z,996.08
2022-10-26T04:15:35.589Z,996.09
2022-10-26T04:16:35.559Z,996.08
2022-10-26T04:17:35.557Z,996.09
2022-10-26T04:18:35.539Z,996.07
2022-10-26T04:19:35.537Z,996.10
2022-10-26T04:20:35.531Z,996.07
2022-10-26T04:21:35.536Z,996.04
2022-10-26T04:22:35.491Z,996.03
2022-10-26T04:23:35.500Z,996.10
2022-10-26T04:24:35.471Z,996.03
2022-10-26T04:25:35.492Z,996.13
2022-10-26T04:26:35.460Z,996.09
2022-10-26T04:27:35.451Z,996.09
2022-10-26T04:28:35.441Z,996.06
2022-10-26T04:29:35.423Z,996.06
2022-10-26T04:30:35.434Z,996.09
2022-10-26T04:31:35.442Z,996.10
2022-10-26T04:32:35.392Z,996.07
2022-10-26T04:33:35.388Z,996.13
2022-10-26T04:34:35.371Z,996.09
2022-10-26T04:35:35.383Z,996.11
2022-10-26T04:36:35.352Z,996.11
2022-10-26T04:37:35.344Z,996.11
2022-10-26T04:38:35.339Z,996.16
2022-10-26T04:39:35.326Z,996.11
2022-10-26T04:40:35.347Z,996.12
2022-10-26T04:41:35.297Z,996.13
2022-10-26T04:42:35.286Z,996.10
2022-10-26T04:43:35.276Z,996.13
2022-10-26T04:44:35.267Z,996.13
2022-10-26T04:45:35.275Z,996.13
2022-10-26T04:46:35.243Z,996.13
2022-10-26T04:47:35.237Z,996.16
2022-10-26T04:48:35.227Z,996.13
2022-10-26T04:49:35.214Z,996.09
2022-10-26T04:50:35.219Z,996.05
2022-10-26T04:51:35.189Z,996.10
2022-10-26T04:52:35.179Z,996.09
2022-10-26T04:53:35.183Z,996.06
2022-10-26T04:54:35.161Z,996.13
2022-10-26T04:55:35.172Z,996.03
2022-10-26T04:56:35.175Z,996.06
2022-10-26T04:57:35.166Z,996.07
2022-10-26T04:58:35.111Z,996.11
2022-10-26T04:59:35.122Z,996.06
2022-10-26T05:00:35.119Z,996.07
2022-10-26T05:01:35.235Z,996.13
2022-10-26T05:02:35.078Z,996.16
2022-10-26T05:03:35.074Z,996.11
2022-10-26T05:04:35.056Z,996.13
2022-10-26T05:05:35.063Z,996.13
2022-10-26T05:06:35.034Z,996.13
2022-10-26T05:07:35.026Z,996.15
2022-10-26T05:08:35.015Z,996.17
2022-10-26T05:09:35.006Z,996.12
2022-10-26T05:10:35.008Z,996.16
2022-10-26T05:11:34.994Z,996.13
2022-10-26T05:12:34.973Z,996.12
2022-10-26T05:13:34.966Z,996.10
2022-10-26T05:14:34.946Z,996.16
2022-10-26T05:15:34.964Z,996.16
2022-10-26T05:16:34.929Z,996.19
2022-10-26T05:17:34.919Z,996.15
2022-10-26T05:18:34.906Z,996.18
2022-10-26T05:19:34.897Z,996.14
2022-10-26T05:20:34.902Z,996.15
2022-10-26T05:21:34.917Z,996.13
2022-10-26T05:22:34.858Z,996.14
2022-10-26T05:23:34.856Z,996.13
2022-10-26T05:24:34.839Z,996.18
2022-10-26T05:25:34.850Z,996.12
2022-10-26T05:26:34.820Z,996.10
2022-10-26T05:27:34.819Z,996.19
2022-10-26T05:28:34.799Z,996.16
2022-10-26T05:29:34.791Z,996.18
2022-10-26T05:30:34.807Z,996.16
2022-10-26T05:31:34.771Z,996.18
2022-10-26T05:32:34.760Z,996.20
2022-10-26T05:33:34.757Z,996.20
2022-10-26T05:34:38.210Z,996.19
2022-10-26T05:35:35.743Z,996.14
2022-10-26T05:36:34.713Z,996.21
2022-10-26T05:37:34.713Z,996.20
2022-10-26T05:38:34.705Z,996.20
2022-10-26T05:39:34.699Z,996.18
2022-10-26T05:40:34.636Z,996.18
2022-10-26T05:41:34.676Z,996.23
2022-10-26T05:42:34.655Z,996.16
2022-10-26T05:43:34.664Z,996.17
2022-10-26T05:44:34.625Z,996.26
2022-10-26T05:45:34.603Z,996.17
2022-10-26T05:46:34.558Z,996.22
2022-10-26T05:47:34.604Z,996.19
2022-10-26T05:48:34.593Z,996.20
2022-10-26T05:49:34.577Z,996.24
2022-10-26T05:50:34.539Z,996.27
2022-10-26T05:51:34.515Z,996.28
2022-10-26T05:52:34.516Z,996.28
2022-10-26T05:53:34.539Z,996.31
2022-10-26T05:54:34.485Z,996.30
2022-10-26T05:55:34.486Z,996.27
2022-10-26T05:56:34.449Z,996.37
2022-10-26T05:57:34.439Z,996.35
2022-10-26T05:58:34.432Z,996.41
2022-10-26T05:59:34.426Z,996.34
2022-10-26T06:00:34.428Z,996.34
2022-10-26T06:01:34.510Z,996.34
2022-10-26T06:02:34.470Z,996.37
2022-10-26T06:03:34.387Z,996.36
2022-10-26T06:04:34.362Z,996.35
2022-10-26T06:05:34.372Z,996.36
2022-10-26T06:06:34.342Z,996.37
2022-10-26T06:07:34.333Z,996.37
2022-10-26T06:08:34.331Z,996.40
2022-10-26T06:09:34.314Z,996.38
2022-10-26T06:10:34.322Z,996.41
2022-10-26T06:11:34.293Z,996.38
2022-10-26T06:12:34.282Z,996.41
2022-10-26T06:13:34.273Z,996.36
2022-10-26T06:14:34.254Z,996.42
2022-10-26T06:15:34.274Z,996.41
2022-10-26T06:16:34.235Z,996.44
2022-10-26T06:17:34.233Z,996.43
2022-10-26T06:18:34.219Z,996.43
2022-10-26T06:19:34.218Z,996.51
2022-10-26T06:20:34.219Z,996.45
2022-10-26T06:21:34.196Z,996.54
2022-10-26T06:22:34.174Z,996.50
2022-10-26T06:23:34.176Z,996.52
2022-10-26T06:24:34.150Z,996.54
2022-10-26T06:25:34.173Z,996.51
2022-10-26T06:26:34.137Z,996.48
2022-10-26T06:27:34.128Z,996.50
2022-10-26T06:28:34.110Z,996.54
2022-10-26T06:29:34.110Z,996.48
2022-10-26T06:30:34.112Z,996.57
2022-10-26T06:31:34.091Z,996.62
2022-10-26T06:32:34.073Z,996.58
2022-10-26T06:33:34.069Z,996.51
2022-10-26T06:34:34.051Z,996.56
2022-10-26T06:35:34.060Z,996.64
2022-10-26T06:36:34.034Z,996.57
2022-10-26T06:37:34.022Z,996.62
2022-10-26T06:38:34.022Z,996.60
2022-10-26T06:39:34.003Z,996.60
2022-10-26T06:40:34.002Z,996.61
2022-10-26T06:41:33.979Z,996.65
2022-10-26T06:42:33.968Z,996.62
2022-10-26T06:43:33.961Z,996.62
2022-10-26T06:44:33.944Z,996.62
2022-10-26T06:45:33.954Z,996.62
2022-10-26T06:46:33.924Z,996.61
2022-10-26T06:47:33.928Z,996.62
2022-10-26T06:48:33.906Z,996.58
2022-10-26T06:49:33.896Z,996.62
2022-10-26T06:50:33.895Z,996.55
2022-10-26T06:51:33.878Z,996.56
2022-10-26T06:52:33.858Z,996.57
2022-10-26T06:53:33.903Z,996.61
2022-10-26T06:54:33.846Z,996.52
2022-10-26T06:55:33.847Z,996.60
2022-10-26T06:56:33.819Z,996.65
2022-10-26T06:57:33.814Z,996.61
2022-10-26T06:58:33.800Z,996.64
2022-10-26T06:59:33.788Z,996.65
2022-10-26T07:00:33.791Z,996.63
2022-10-26T07:01:33.859Z,996.67
2022-10-26T07:02:33.903Z,996.62
2022-10-26T07:03:33.749Z,996.61
2022-10-26T07:04:33.748Z,996.59
2022-10-26T07:05:33.740Z,996.59
2022-10-26T07:06:36.787Z,996.58
2022-10-26T07:07:34.703Z,996.57
2022-10-26T07:08:33.703Z,996.60
2022-10-26T07:09:33.684Z,996.61
2022-10-26T07:10:33.701Z,996.56
2022-10-26T07:11:33.672Z,996.58
2022-10-26T07:12:33.642Z,996.59
2022-10-26T07:13:33.644Z,996.58
2022-10-26T07:14:33.624Z,996.61
2022-10-26T07:15:33.633Z,996.58
2022-10-26T07:16:33.604Z,996.59
2022-10-26T07:17:33.595Z,996.62
2022-10-26T07:18:33.583Z,996.60
2022-10-26T07:19:33.582Z,996.59
2022-10-26T07:20:33.574Z,996.63
2022-10-26T07:21:33.554Z,996.67
2022-10-26T07:22:33.544Z,996.68
2022-10-26T07:23:33.540Z,996.72
2022-10-26T07:24:33.527Z,996.72
2022-10-26T07:25:33.526Z,996.70
2022-10-26T07:26:33.496Z,996.73
2022-10-26T07:27:33.493Z,996.78
2022-10-26T07:28:33.477Z,996.78
2022-10-26T07:29:33.468Z,996.79
2022-10-26T07:30:33.478Z,996.83
2022-10-26T07:31:33.465Z,996.81
2022-10-26T07:32:33.437Z,996.79
2022-10-26T07:33:35.867Z,996.80
2022-10-26T07:34:33.410Z,996.85
2022-10-26T07:35:33.429Z,996.84
2022-10-26T07:36:33.390Z,996.81
2022-10-26T07:37:33.388Z,996.79
2022-10-26T07:38:33.370Z,996.77
2022-10-26T07:39:33.369Z,996.83
2022-10-26T07:40:33.375Z,996.71
2022-10-26T07:41:33.348Z,996.80
2022-10-26T07:42:33.331Z,996.73
2022-10-26T07:43:33.322Z,996.73
2022-10-26T07:44:33.309Z,996.82
2022-10-26T07:45:33.323Z,996.87
2022-10-26T07:46:33.285Z,996.88
2022-10-26T07:47:33.282Z,996.86
2022-10-26T07:48:33.314Z,996.81
2022-10-26T07:49:33.262Z,996.78
2022-10-26T07:50:33.264Z,996.81
2022-10-26T07:51:33.254Z,996.86
2022-10-26T07:52:33.227Z,996.86
2022-10-26T07:53:33.224Z,996.82
2022-10-26T07:54:33.205Z,996.87
2022-10-26T07:55:33.209Z,996.89
2022-10-26T07:56:33.185Z,996.89
2022-10-26T07:57:33.166Z,996.78
2022-10-26T07:58:33.173Z,996.86
2022-10-26T07:59:33.148Z,996.82
2022-10-26T08:00:33.217Z,996.85
2022-10-26T08:01:33.242Z,996.93
2022-10-26T08:02:33.129Z,996.92
2022-10-26T08:03:33.108Z,996.89
2022-10-26T08:04:33.102Z,996.89
2022-10-26T08:05:33.115Z,996.86
2022-10-26T08:06:33.079Z,996.87
2022-10-26T08:07:33.078Z,996.85
2022-10-26T08:08:33.061Z,996.87
2022-10-26T08:09:33.047Z,996.94
2022-10-26T08:10:33.060Z,996.91
2022-10-26T08:11:33.030Z,996.95
2022-10-26T08:12:33.088Z,996.92
2022-10-26T08:13:33.014Z,996.92
2022-10-26T08:14:33.004Z,996.91
2022-10-26T08:15:33.000Z,996.94
2022-10-26T08:16:32.980Z,996.94
2022-10-26T08:17:32.963Z,996.95
2022-10-26T08:18:32.965Z,996.95
2022-10-26T08:19:32.945Z,996.97
2022-10-26T08:20:32.957Z,996.97
2022-10-26T08:21:39.902Z,996.99
2022-10-26T08:22:33.921Z,996.99
2022-10-26T08:23:32.903Z,996.96
2022-10-26T08:24:32.895Z,996.88
2022-10-26T08:25:32.895Z,996.90
2022-10-26T08:26:32.875Z,996.96
2022-10-26T08:27:32.864Z,996.97
2022-10-26T08:28:32.876Z,997.04
2022-10-26T08:29:32.840Z,996.98
2022-10-26T08:30:32.854Z,997.06
2022-10-26T08:31:32.818Z,997.04
2022-10-26T08:32:32.808Z,996.98
2022-10-26T08:33:32.799Z,997.00
2022-10-26T08:34:32.813Z,997.05
2022-10-26T08:35:32.798Z,997.12
2022-10-26T08:36:32.769Z,996.98
2022-10-26T08:37:32.758Z,997.02
2022-10-26T08:38:32.749Z,996.95
2022-10-26T08:39:32.744Z,996.99
2022-10-26T08:40:32.751Z,996.97
2022-10-26T08:41:32.723Z,996.97
2022-10-26T08:42:32.710Z,996.98
2022-10-26T08:43:32.708Z,997.00
2022-10-26T08:44:32.683Z,996.97
2022-10-26T08:45:36.907Z,997.00
2022-10-26T08:46:32.672Z,997.00
2022-10-26T08:47:32.654Z,997.03
2022-10-26T08:48:32.643Z,997.03
2022-10-26T08:49:32.623Z,997.01
2022-10-26T08:50:32.646Z,997.02
2022-10-26T08:51:32.612Z,996.99
2022-10-26T08:52:32.607Z,997.00
2022-10-26T08:53:32.584Z,997.01
2022-10-26T08:54:32.582Z,996.94
2022-10-26T08:55:32.646Z,996.94
2022-10-26T08:56:32.565Z,996.88
2022-10-26T08:57:32.546Z,996.89
2022-10-26T08:58:32.536Z,996.86
2022-10-26T08:59:32.528Z,996.88
2022-10-26T09:00:32.547Z,996.87
2022-10-26T09:01:32.593Z,996.85
2022-10-26T09:02:32.575Z,996.81
2022-10-26T09:03:33.678Z,996.88
2022-10-26T09:04:32.469Z,996.82
2022-10-26T09:05:34.780Z,996.85
2022-10-26T09:06:32.460Z,996.81
2022-10-26T09:07:32.448Z,996.85
2022-10-26T09:08:32.436Z,996.82
2022-10-26T09:09:32.430Z,996.83
2022-10-26T09:10:32.434Z,996.87
2022-10-26T09:11:32.399Z,996.87
2022-10-26T09:12:32.392Z,996.94
2022-10-26T09:13:32.379Z,996.91
2022-10-26T09:14:32.372Z,996.92
2022-10-26T09:15:32.380Z,996.89
2022-10-26T09:16:32.350Z,996.94
2022-10-26T09:17:32.333Z,996.91
2022-10-26T09:18:32.329Z,996.93
2022-10-26T09:19:32.313Z,996.91
2022-10-26T09:20:32.325Z,996.93
2022-10-26T09:21:32.293Z,996.94
2022-10-26T09:22:32.285Z,996.94
2022-10-26T09:23:32.281Z,996.97
2022-10-26T09:24:32.269Z,996.90
2022-10-26T09:25:32.265Z,996.94
2022-10-26T09:26:32.247Z,996.94
2022-10-26T09:27:32.231Z,996.92
2022-10-26T09:28:32.226Z,996.97
2022-10-26T09:29:32.210Z,996.99
2022-10-26T09:30:32.233Z,997.05
2022-10-26T09:31:32.184Z,997.00
2022-10-26T09:32:32.180Z,997.01
2022-10-26T09:33:32.159Z,997.02
2022-10-26T09:34:32.180Z,997.08
2022-10-26T09:35:32.176Z,997.02
2022-10-26T09:36:32.136Z,997.04
2022-10-26T09:37:32.119Z,997.07
2022-10-26T09:38:32.120Z,997.10
2022-10-26T09:39:32.097Z,997.11
2022-10-26T09:40:32.118Z,997.07
2022-10-26T09:41:32.273Z,997.10
2022-10-26T09:42:32.069Z,997.04
2022-10-26T09:43:32.060Z,997.06
2022-10-26T09:44:32.052Z,997.03
2022-10-26T09:45:32.052Z,997.05
2022-10-26T09:46:32.022Z,997.09
2022-10-26T09:47:32.011Z,997.13
2022-10-26T09:48:32.013Z,997.16
2022-10-26T09:49:31.993Z,997.21
2022-10-26T09:50:32.015Z,997.22
2022-10-26T09:51:31.964Z,997.30
2022-10-26T09:52:31.964Z,997.22
2022-10-26T09:53:31.945Z,997.25
2022-10-26T09:54:31.948Z,997.24
2022-10-26T09:55:31.945Z,997.21
2022-10-26T09:56:31.924Z,997.24
2022-10-26T09:57:31.906Z,997.29
2022-10-26T09:58:31.896Z,997.26
2022-10-26T09:59:31.877Z,997.23
2022-10-26T10:00:31.954Z,997.28
2022-10-26T10:01:32.374Z,997.28
2022-10-26T10:02:31.892Z,997.29
2022-10-26T10:03:31.848Z,997.25
2022-10-26T10:04:31.839Z,997.28
2022-10-26T10:06:32.813Z,997.30
2022-10-26T10:07:33.718Z,997.27
2022-10-26T10:08:31.800Z,997.32
2022-10-26T10:09:31.787Z,997.31
2022-10-26T10:10:31.791Z,997.35
2022-10-26T10:11:31.766Z,997.36
2022-10-26T10:12:31.759Z,997.35
2022-10-26T10:13:31.744Z,997.33
2022-10-26T10:14:34.638Z,997.37
2022-10-26T10:15:32.781Z,997.36
2022-10-26T10:16:31.711Z,997.38
2022-10-26T10:17:31.694Z,997.33
2022-10-26T10:18:31.782Z,997.27
2022-10-26T10:19:31.674Z,997.22
2022-10-26T10:20:31.695Z,997.26
2022-10-26T10:21:31.663Z,997.26
2022-10-26T10:22:31.644Z,997.25
2022-10-26T10:23:31.632Z,997.16
2022-10-26T10:24:31.631Z,997.19
2022-10-26T10:25:31.637Z,997.15
2022-10-26T10:26:31.615Z,997.14
2022-10-26T10:27:31.595Z,997.06
2022-10-26T10:28:31.587Z,997.04
2022-10-26T10:29:31.568Z,997.05
2022-10-26T10:30:31.577Z,997.08
2022-10-26T10:31:31.550Z,997.09
2022-10-26T10:32:35.284Z,997.17
2022-10-26T10:33:32.527Z,997.14
2022-10-26T10:34:31.519Z,997.13
2022-10-26T10:35:31.520Z,997.16
2022-10-26T10:36:31.507Z,997.16
2022-10-26T10:37:31.481Z,997.20
2022-10-26T10:38:31.485Z,997.19
2022-10-26T10:39:31.470Z,997.23
2022-10-26T10:40:31.542Z,997.25
2022-10-26T10:41:31.470Z,997.22
2022-10-26T10:42:31.440Z,997.23
2022-10-26T10:43:31.441Z,997.20
2022-10-26T10:44:31.415Z,997.27
2022-10-26T10:45:31.440Z,997.32
2022-10-26T10:46:31.393Z,997.37
2022-10-26T10:47:31.416Z,997.37
2022-10-26T10:48:33.477Z,997.35
2022-10-26T10:49:31.358Z,997.32
2022-10-26T10:50:31.371Z,997.37
2022-10-26T10:51:31.334Z,997.37
2022-10-26T10:52:31.336Z,997.40
2022-10-26T10:53:31.314Z,997.46
2022-10-26T10:54:31.312Z,997.42
2022-10-26T10:55:31.306Z,997.41
2022-10-26T10:56:31.287Z,997.41
2022-10-26T10:57:31.273Z,997.43
2022-10-26T10:58:31.274Z,997.36
2022-10-26T10:59:31.247Z,997.42
2022-10-26T11:00:31.274Z,997.38
2022-10-26T11:01:31.338Z,997.35
2022-10-26T11:02:31.281Z,997.38
2022-10-26T11:03:31.208Z,997.41
2022-10-26T11:04:31.208Z,997.36
2022-10-26T11:05:31.215Z,997.43
2022-10-26T11:06:31.179Z,997.39
2022-10-26T11:07:31.167Z,997.46
2022-10-26T11:08:31.161Z,997.43
2022-10-26T11:09:31.170Z,997.44
2022-10-26T11:10:31.140Z,997.42
2022-10-26T11:11:31.142Z,997.46
2022-10-26T11:12:31.257Z,997.36
2022-10-26T11:13:31.112Z,997.41
2022-10-26T11:14:31.092Z,997.33
2022-10-26T11:15:31.091Z,997.32
2022-10-26T11:16:31.093Z,997.29
2022-10-26T11:17:31.054Z,997.34
2022-10-26T11:18:31.055Z,997.27
2022-10-26T11:19:31.042Z,997.31
2022-10-26T11:20:31.046Z,997.29
2022-10-26T11:21:31.034Z,997.35
2022-10-26T11:22:31.030Z,997.33
2022-10-26T11:23:30.996Z,997.29
2022-10-26T11:24:31.004Z,997.32
2022-10-26T11:25:30.982Z,997.24
2022-10-26T11:26:30.986Z,997.26
2022-10-26T11:27:30.959Z,997.26
2022-10-26T11:28:30.947Z,997.22
2022-10-26T11:29:32.798Z,997.25
2022-10-26T11:30:30.948Z,997.30
2022-10-26T11:31:30.939Z,997.31
2022-10-26T11:32:30.940Z,997.30
2022-10-26T11:33:30.891Z,997.31
2022-10-26T11:34:30.888Z,997.28
2022-10-26T11:35:30.900Z,997.25
2022-10-26T11:36:30.879Z,997.23
2022-10-26T11:37:30.971Z,997.21
2022-10-26T11:38:45.482Z,997.26
2022-10-26T11:39:31.835Z,997.12
2022-10-26T11:40:30.831Z,997.17
2022-10-26T11:41:30.830Z,997.23
2022-10-26T11:42:30.804Z,997.19
2022-10-26T11:43:30.795Z,997.20
2022-10-26T11:44:30.792Z,997.24
2022-10-26T11:45:30.763Z,997.23
2022-10-26T11:46:30.787Z,997.35
2022-10-26T11:47:30.771Z,997.23
2022-10-26T11:48:30.737Z,997.20
2022-10-26T11:49:30.727Z,997.22
2022-10-26T11:50:30.714Z,997.27
2022-10-26T11:51:30.715Z,997.23
2022-10-26T11:52:30.698Z,997.25
2022-10-26T11:53:30.675Z,997.20
2022-10-26T11:54:30.670Z,997.14
2022-10-26T11:55:30.658Z,997.18
2022-10-26T11:56:30.669Z,997.19
2022-10-26T11:57:30.631Z,997.12
2022-10-26T11:58:30.629Z,997.19
2022-10-26T11:59:33.159Z,997.21
2022-10-26T12:00:30.609Z,997.27
2022-10-26T12:01:30.620Z,997.24
2022-10-26T12:02:30.657Z,997.25
2022-10-26T12:03:30.563Z,997.28
2022-10-26T12:04:30.572Z,997.23
2022-10-26T12:05:30.554Z,997.26
2022-10-26T12:06:30.561Z,997.15
2022-10-26T12:07:30.524Z,997.14
2022-10-26T12:08:30.527Z,997.26
2022-10-26T12:09:33.429Z,997.18
2022-10-26T12:10:31.506Z,997.16
2022-10-26T12:11:30.488Z,997.13
2022-10-26T12:12:32.618Z,997.15
2022-10-26T12:13:30.467Z,997.10
2022-10-26T12:14:30.447Z,997.10
2022-10-26T12:15:35.442Z,997.13
2022-10-26T12:16:31.427Z,997.16
2022-10-26T12:17:30.429Z,997.13
2022-10-26T12:18:50.366Z,997.20
2022-10-26T12:19:31.401Z,997.27
2022-10-26T12:20:30.401Z,997.26
2022-10-26T12:21:30.390Z,997.18
2022-10-26T12:22:30.367Z,997.16
2022-10-26T12:23:40.281Z,997.19
2022-10-26T12:24:31.350Z,997.28
2022-10-26T12:25:30.352Z,997.27
2022-10-26T12:26:30.342Z,997.20
2022-10-26T12:27:30.313Z,997.26
2022-10-26T12:28:30.303Z,997.26
2022-10-26T12:29:30.294Z,997.30
2022-10-26T12:30:30.301Z,997.35
2022-10-26T12:32:30.255Z,997.26
2022-10-26T12:33:30.269Z,997.28